Time;durP1;ratioP1;P1;durP2;ratioP2;P2;SDS_P1;SDS_P2;PMS_P1;PMS_P2;Temp;Humidity;BMP_temperature;BMP_pressure;BME280_temperature;BME280_humidity;BME280_pressure;Samples;Min_cycle;Max_cycle;Signal;HPM_P1;HPM_P2
2023/11/20 00:01:03;;;;;;;10.68;4.97;;;1.40;99.90;;;;;;5014318;28;20049;-78
2023/11/20 00:03:28;;;;;;;5.50;4.38;;;1.40;99.90;;;;;;5046720;28;20427;-78
2023/11/20 00:05:54;;;;;;;11.05;5.80;;;1.50;99.90;;;;;;5014404;28;20030;-77
2023/11/20 00:08:20;;;;;;;6.97;4.22;;;1.50;99.90;;;;;;5015481;28;20392;-77
2023/11/20 00:10:45;;;;;;;6.55;4.38;;;1.40;99.90;;;;;;5015441;28;20493;-77
2023/11/20 00:13:11;;;;;;;7.80;5.55;;;1.40;99.90;;;;;;5015197;28;20105;-76
2023/11/20 00:15:37;;;;;;;15.20;5.70;;;1.40;99.90;;;;;;5014082;28;20028;-77
2023/11/20 00:18:04;;;;;;;7.45;4.93;;;1.40;99.90;;;;;;5013833;28;20028;-78
2023/11/20 00:20:31;;;;;;;6.50;4.40;;;1.40;99.90;;;;;;5013897;28;20030;-78
2023/11/20 00:22:57;;;;;;;9.00;3.97;;;1.30;99.90;;;;;;5015332;28;20026;-78
2023/11/20 00:25:23;;;;;;;9.25;4.35;;;1.30;99.90;;;;;;5015101;28;20037;-77
2023/11/20 00:27:49;;;;;;;4.93;4.15;;;1.30;99.90;;;;;;5015178;28;20034;-78
2023/11/20 00:30:14;;;;;;;7.25;4.90;;;1.30;99.90;;;;;;5013751;28;20033;-78
2023/11/20 00:32:40;;;;;;;8.75;5.50;;;1.30;99.90;;;;;;5014888;28;20033;-78
2023/11/20 00:35:06;;;;;;;6.93;4.78;;;1.30;99.90;;;;;;5013428;28;20022;-77
2023/11/20 00:37:31;;;;;;;8.38;4.32;;;1.20;99.90;;;;;;5014475;28;20065;-78
2023/11/20 00:39:57;;;;;;;9.20;5.53;;;1.10;99.90;;;;;;5013811;28;20037;-78
2023/11/20 00:42:23;;;;;;;7.43;4.32;;;1.10;99.90;;;;;;5013494;28;20476;-78
2023/11/20 00:44:49;;;;;;;8.05;4.85;;;1.10;99.90;;;;;;5013121;28;20033;-78
2023/11/20 00:47:15;;;;;;;10.02;4.90;;;1.00;99.90;;;;;;5014563;28;20076;-77
2023/11/20 00:49:40;;;;;;;7.85;5.28;;;1.20;99.90;;;;;;5014565;28;20030;-77
2023/11/20 00:52:06;;;;;;;7.75;5.30;;;1.20;99.90;;;;;;5014349;28;20018;-77
2023/11/20 00:54:31;;;;;;;6.70;5.13;;;1.10;99.90;;;;;;5024167;23;20055;-76
2023/11/20 00:56:57;;;;;;;7.60;4.43;;;1.10;99.90;;;;;;4998350;28;20026;-77
2023/11/20 00:59:23;;;;;;;9.60;5.32;;;1.10;99.90;;;;;;4996501;28;20548;-76
2023/11/20 01:01:48;;;;;;;8.68;5.40;;;1.10;99.90;;;;;;4996412;28;20026;-78
2023/11/20 01:04:14;;;;;;;7.50;4.90;;;1.10;99.90;;;;;;4996922;28;20057;-75
2023/11/20 01:06:40;;;;;;;8.63;4.72;;;1.10;99.90;;;;;;4998939;28;20022;-77
2023/11/20 01:09:06;;;;;;;8.52;5.85;;;1.00;99.90;;;;;;4999971;28;20034;-77
2023/11/20 01:11:33;;;;;;;9.32;5.15;;;1.10;99.90;;;;;;4999592;28;20026;-75
2023/11/20 01:14:01;;;;;;;8.43;5.28;;;1.10;99.90;;;;;;5000397;28;20519;-77
2023/11/20 01:16:27;;;;;;;7.75;5.13;;;1.00;99.90;;;;;;5000132;28;20030;-76
2023/11/20 01:18:53;;;;;;;7.60;4.47;;;1.00;99.90;;;;;;5000294;28;20029;-76
2023/11/20 01:21:19;;;;;;;6.32;4.32;;;1.00;99.90;;;;;;5001290;28;20073;-77
2023/11/20 01:23:45;;;;;;;7.45;4.68;;;1.00;99.90;;;;;;5004362;28;20031;-77
2023/11/20 01:26:11;;;;;;;9.25;4.82;;;1.20;99.90;;;;;;5005159;28;20037;-79
2023/11/20 01:28:37;;;;;;;8.43;4.90;;;1.20;99.90;;;;;;5005157;28;20058;-79
2023/11/20 01:31:03;;;;;;;9.23;5.55;;;1.20;99.90;;;;;;5007908;28;20034;-79
2023/11/20 01:33:29;;;;;;;8.52;5.20;;;1.20;99.90;;;;;;5010240;28;20029;-79
2023/11/20 01:35:55;;;;;;;9.55;5.20;;;1.20;99.90;;;;;;5010220;28;20030;-77
2023/11/20 01:38:20;;;;;;;8.40;4.72;;;1.20;99.90;;;;;;5010275;28;20030;-78
2023/11/20 01:40:53;;;;;;;5.57;4.40;;;1.10;99.90;;;;;;5011296;28;20026;-81
2023/11/20 01:43:19;;;;;;;10.55;5.78;;;1.10;99.90;;;;;;5010277;28;20027;-78
2023/11/20 01:45:45;;;;;;;6.43;4.32;;;1.00;99.90;;;;;;5009789;28;20026;-80
2023/11/20 01:48:11;;;;;;;7.00;4.40;;;1.00;99.90;;;;;;5010601;28;20030;-76
2023/11/20 01:50:37;;;;;;;7.40;4.82;;;0.90;99.90;;;;;;5009796;28;20053;-79
2023/11/20 01:53:04;;;;;;;7.72;4.10;;;0.90;99.90;;;;;;5010410;28;20027;-79
2023/11/20 01:55:30;;;;;;;7.25;4.75;;;0.90;99.90;;;;;;5010630;28;20034;-79
2023/11/20 01:57:56;;;;;;;5.97;4.40;;;0.90;99.90;;;;;;5009559;28;20029;-79
2023/11/20 02:00:22;;;;;;;7.88;4.57;;;0.80;99.90;;;;;;5010566;28;20041;-80
2023/11/20 02:02:49;;;;;;;7.05;4.82;;;0.70;99.90;;;;;;5009622;28;20026;-81
2023/11/20 02:05:15;;;;;;;5.47;4.15;;;0.70;99.90;;;;;;5010006;28;20041;-77
2023/11/20 02:07:41;;;;;;;9.30;4.88;;;0.80;99.90;;;;;;5002838;28;20097;-77
2023/11/20 02:10:07;;;;;;;8.18;4.13;;;0.80;99.90;;;;;;4993341;28;20026;-77
2023/11/20 02:12:34;;;;;;;7.97;5.45;;;0.90;99.90;;;;;;4993361;28;20034;-75
2023/11/20 02:14:59;;;;;;;5.57;4.60;;;1.00;99.90;;;;;;4993176;28;20049;-77
2023/11/20 02:17:25;;;;;;;8.57;4.82;;;1.00;99.90;;;;;;4993419;28;20481;-76
2023/11/20 02:19:52;;;;;;;8.02;4.32;;;0.90;99.90;;;;;;4993781;28;20034;-77
2023/11/20 02:22:18;;;;;;;8.70;4.07;;;0.90;99.90;;;;;;4994348;28;20532;-75
2023/11/20 02:24:45;;;;;;;5.75;3.95;;;0.80;99.90;;;;;;4994526;28;20023;-78
2023/11/20 02:27:29;;;;;;;9.30;4.55;;;0.80;99.90;;;;;;4993857;28;20493;-77
2023/11/20 02:29:55;;;;;;;6.45;3.92;;;0.80;99.90;;;;;;4992452;28;20041;-79
2023/11/20 02:32:21;;;;;;;7.13;4.30;;;0.70;99.90;;;;;;4992311;28;20069;-77
2023/11/20 02:34:47;;;;;;;10.10;4.32;;;0.70;99.90;;;;;;4993956;28;20475;-77
2023/11/20 02:37:14;;;;;;;7.82;4.10;;;0.80;99.90;;;;;;4993781;28;20111;-77
2023/11/20 02:39:39;;;;;;;6.32;4.63;;;0.80;99.90;;;;;;4994597;28;20018;-76
2023/11/20 02:42:06;;;;;;;10.40;5.05;;;0.80;99.90;;;;;;4993308;28;20065;-77
2023/11/20 02:44:37;;;;;;;7.60;5.15;;;0.90;99.90;;;;;;4993163;28;20065;-76
2023/11/20 02:47:04;;;;;;;10.35;4.85;;;0.80;99.90;;;;;;4993104;28;20026;-77
2023/11/20 02:49:29;;;;;;;7.00;3.92;;;0.80;99.90;;;;;;4994461;28;20022;-75
2023/11/20 02:51:55;;;;;;;7.75;4.28;;;0.70;99.90;;;;;;4994403;28;20037;-77
2023/11/20 02:54:20;;;;;;;8.32;4.30;;;0.70;99.90;;;;;;4993792;28;20033;-75
2023/11/20 02:56:46;;;;;;;8.50;5.05;;;0.70;99.90;;;;;;4992848;28;20113;-75
2023/11/20 02:59:12;;;;;;;7.85;5.05;;;0.60;99.90;;;;;;4992997;28;20180;-76
2023/11/20 03:01:38;;;;;;;9.05;4.80;;;0.70;99.90;;;;;;4993130;28;20062;-75
2023/11/20 03:04:04;;;;;;;8.20;4.72;;;0.70;99.90;;;;;;4996202;28;20113;-76
2023/11/20 03:06:30;;;;;;;5.80;4.13;;;0.60;99.90;;;;;;4996408;28;20069;-79
2023/11/20 03:08:56;;;;;;;9.27;4.65;;;0.70;99.90;;;;;;4996256;28;20022;-77
2023/11/20 03:11:21;;;;;;;11.70;5.20;;;0.70;99.90;;;;;;4997809;28;20034;-76
2023/11/20 03:13:47;;;;;;;6.03;4.30;;;0.70;99.90;;;;;;4997700;28;20018;-76
2023/11/20 03:16:13;;;;;;;9.70;4.40;;;0.70;99.90;;;;;;4997630;28;20035;-77
2023/11/20 03:18:39;;;;;;;6.05;4.60;;;0.60;99.90;;;;;;4997390;28;20018;-75
2023/11/20 03:21:04;;;;;;;7.85;4.05;;;0.60;99.90;;;;;;4996320;28;20031;-76
2023/11/20 03:23:30;;;;;;;8.27;3.70;;;0.70;99.90;;;;;;4997661;28;20405;-77
2023/11/20 03:25:55;;;;;;;7.72;4.95;;;0.60;99.90;;;;;;4997156;28;20037;-77
2023/11/20 03:28:21;;;;;;;7.25;4.45;;;0.60;99.90;;;;;;4996442;28;20037;-77
2023/11/20 03:30:47;;;;;;;6.60;4.53;;;0.60;99.90;;;;;;4997571;28;20053;-75
2023/11/20 03:33:12;;;;;;;6.75;4.70;;;0.50;99.90;;;;;;4996163;28;20066;-75
2023/11/20 03:35:38;;;;;;;7.20;4.93;;;0.40;99.90;;;;;;4995529;28;20488;-77
2023/11/20 03:38:04;;;;;;;7.63;5.10;;;0.40;99.90;;;;;;4995567;28;20033;-76
2023/11/20 03:40:29;;;;;;;6.75;4.53;;;0.40;99.90;;;;;;4997063;28;20106;-77
2023/11/20 03:42:55;;;;;;;9.68;5.32;;;0.50;99.90;;;;;;4995611;28;20022;-77
2023/11/20 03:45:20;;;;;;;7.03;5.05;;;0.50;99.90;;;;;;4995805;28;20037;-76
2023/11/20 03:47:46;;;;;;;9.18;5.60;;;0.50;99.90;;;;;;4997084;28;20058;-77
2023/11/20 03:50:12;;;;;;;11.02;4.13;;;0.40;99.90;;;;;;4997044;28;20034;-76
2023/11/20 03:52:37;;;;;;;7.80;5.38;;;0.40;99.90;;;;;;4997061;28;20393;-75
2023/11/20 03:55:03;;;;;;;11.60;6.07;;;0.40;99.90;;;;;;4995469;28;20026;-76
2023/11/20 03:57:29;;;;;;;6.82;5.05;;;0.40;99.90;;;;;;4995579;28;20026;-76
2023/11/20 03:59:54;;;;;;;6.40;4.43;;;0.50;99.90;;;;;;4997059;28;20516;-77
2023/11/20 04:02:20;;;;;;;9.40;4.97;;;0.50;99.90;;;;;;4995583;28;20034;-77
2023/11/20 04:04:46;;;;;;;13.38;5.03;;;0.50;99.90;;;;;;4995646;28;20467;-77
2023/11/20 04:07:12;;;;;;;9.00;5.20;;;0.50;99.90;;;;;;4995385;28;20080;-77
2023/11/20 04:09:37;;;;;;;7.80;5.28;;;0.50;99.90;;;;;;4994792;28;20081;-77
2023/11/20 04:12:03;;;;;;;7.88;4.95;;;0.50;99.90;;;;;;4995087;28;20122;-76
2023/11/20 04:14:29;;;;;;;8.90;4.40;;;0.60;99.90;;;;;;4996261;28;20026;-77
2023/11/20 04:16:55;;;;;;;7.30;4.90;;;0.60;99.90;;;;;;4996058;28;20026;-78
2023/11/20 04:19:20;;;;;;;9.75;4.63;;;0.60;99.90;;;;;;4995754;28;20022;-76
2023/11/20 04:21:46;;;;;;;6.90;4.40;;;0.50;99.90;;;;;;4996973;28;20393;-78
2023/11/20 04:24:12;;;;;;;7.30;4.32;;;0.50;99.90;;;;;;4996686;28;20041;-75
2023/11/20 04:26:38;;;;;;;7.75;4.90;;;0.70;99.90;;;;;;4996614;28;20026;-76
2023/11/20 04:29:04;;;;;;;9.60;4.97;;;0.50;99.90;;;;;;4996740;28;20053;-75
2023/11/20 04:31:30;;;;;;;6.90;4.57;;;0.60;99.90;;;;;;4996985;28;20037;-76
2023/11/20 04:33:56;;;;;;;10.43;5.38;;;0.70;99.90;;;;;;4996895;28;20172;-76
2023/11/20 04:36:21;;;;;;;8.30;4.32;;;0.70;99.90;;;;;;4995742;28;20033;-76
2023/11/20 04:38:47;;;;;;;7.68;4.50;;;0.70;99.90;;;;;;4996669;28;20105;-76
2023/11/20 04:41:13;;;;;;;5.63;3.95;;;0.80;99.90;;;;;;4995564;28;20022;-76
2023/11/20 04:43:39;;;;;;;7.43;4.20;;;0.80;99.90;;;;;;4995727;28;20030;-77
2023/11/20 04:46:09;;;;;;;6.28;4.70;;;1.00;99.90;;;;;;4995976;28;20022;-76
2023/11/20 04:48:35;;;;;;;8.07;4.50;;;0.90;99.90;;;;;;4995889;28;20572;-75
2023/11/20 04:51:00;;;;;;;8.40;5.65;;;1.00;99.90;;;;;;4996059;28;20113;-77
2023/11/20 04:53:26;;;;;;;8.00;4.82;;;1.00;99.90;;;;;;4993987;28;20053;-75
2023/11/20 04:55:52;;;;;;;6.60;4.18;;;1.00;99.90;;;;;;4995378;28;20105;-77
2023/11/20 04:58:21;;;;;;;6.43;4.57;;;1.00;99.90;;;;;;4994542;28;20025;-77
2023/11/20 05:00:51;;;;;;;8.82;5.55;;;1.10;99.90;;;;;;4995526;28;20493;-76
2023/11/20 05:03:17;;;;;;;7.80;4.85;;;1.10;99.90;;;;;;4995842;28;20030;-77
2023/11/20 05:05:43;;;;;;;7.88;4.32;;;1.00;99.90;;;;;;4994947;28;20101;-77
2023/11/20 05:08:09;;;;;;;6.68;4.22;;;1.00;99.90;;;;;;4995337;28;20054;-76
2023/11/20 05:10:35;;;;;;;4.82;3.55;;;1.10;99.90;;;;;;4993854;28;20464;-75
2023/11/20 05:13:01;;;;;;;12.73;5.07;;;1.10;99.90;;;;;;4993712;28;20127;-76
2023/11/20 05:15:26;;;;;;;6.22;4.50;;;1.10;99.90;;;;;;4993725;28;20041;-76
2023/11/20 05:17:52;;;;;;;8.60;5.10;;;1.10;99.90;;;;;;4995145;28;20045;-76
2023/11/20 05:20:18;;;;;;;8.35;5.07;;;1.10;99.90;;;;;;4994775;28;20138;-77
2023/11/20 05:22:45;;;;;;;10.30;4.80;;;1.10;99.90;;;;;;4994729;28;20033;-76
2023/11/20 05:25:11;;;;;;;9.50;4.45;;;1.20;99.90;;;;;;4994836;28;20026;-75
2023/11/20 05:27:37;;;;;;;7.05;4.50;;;1.20;99.90;;;;;;4994626;28;20457;-76
2023/11/20 05:30:05;;;;;;;9.52;4.88;;;1.20;99.90;;;;;;4994211;28;20062;-79
2023/11/20 05:32:31;;;;;;;9.27;5.57;;;1.20;99.90;;;;;;4994165;28;20022;-75
2023/11/20 05:34:56;;;;;;;9.70;4.55;;;1.10;99.90;;;;;;4993145;28;20034;-77
2023/11/20 05:37:23;;;;;;;7.97;4.70;;;1.10;99.90;;;;;;4996342;28;20064;-77
2023/11/20 05:39:48;;;;;;;8.02;5.57;;;1.20;99.90;;;;;;4996089;28;20100;-77
2023/11/20 05:42:14;;;;;;;12.43;5.50;;;1.10;99.90;;;;;;4994072;28;20030;-75
2023/11/20 05:44:39;;;;;;;7.60;5.72;;;1.10;99.90;;;;;;4993251;28;20019;-76
2023/11/20 05:47:06;;;;;;;10.43;5.65;;;1.00;99.90;;;;;;4994630;28;20022;-77
2023/11/20 05:49:31;;;;;;;8.90;5.80;;;0.90;99.90;;;;;;4995093;28;20014;-76
2023/11/20 05:51:57;;;;;;;8.75;5.25;;;0.90;99.90;;;;;;4993441;28;20030;-75
2023/11/20 05:54:22;;;;;;;9.85;4.15;;;0.90;99.90;;;;;;4994365;28;20527;-77
2023/11/20 05:56:48;;;;;;;10.02;5.13;;;0.90;99.90;;;;;;4994386;28;20029;-77
2023/11/20 05:59:14;;;;;;;10.40;4.53;;;0.90;99.90;;;;;;4994827;28;20019;-75
2023/11/20 06:01:40;;;;;;;5.97;4.13;;;0.90;99.90;;;;;;4993423;28;20037;-76
2023/11/20 06:04:10;;;;;;;7.05;3.97;;;1.00;99.90;;;;;;4992805;28;20493;-77
2023/11/20 06:06:36;;;;;;;37.95;14.77;;;0.90;99.90;;;;;;4993196;28;20026;-79
2023/11/20 06:09:04;;;;;;;18.63;9.25;;;0.90;99.90;;;;;;4994491;28;20168;-76
2023/11/20 06:11:30;;;;;;;7.45;5.00;;;1.00;99.90;;;;;;4993315;28;20027;-77
2023/11/20 06:13:57;;;;;;;8.10;5.65;;;1.10;99.90;;;;;;4994478;28;20015;-76
2023/11/20 06:16:23;;;;;;;7.43;5.32;;;0.90;99.90;;;;;;4993055;28;20027;-76
2023/11/20 06:18:49;;;;;;;12.88;6.25;;;1.00;99.90;;;;;;4994701;28;20019;-77
2023/11/20 06:21:15;;;;;;;7.32;4.70;;;0.90;99.90;;;;;;4993303;28;20399;-76
2023/11/20 06:23:40;;;;;;;7.25;5.20;;;0.90;99.90;;;;;;4993854;28;20037;-79
2023/11/20 06:26:06;;;;;;;8.05;5.30;;;1.00;99.90;;;;;;4994375;28;20093;-76
2023/11/20 06:28:32;;;;;;;8.05;5.07;;;0.90;99.90;;;;;;4994904;28;20117;-77
2023/11/20 06:30:57;;;;;;;5.90;4.35;;;2.60;99.90;;;;;;4994523;28;20030;-76
2023/11/20 06:33:23;;;;;;;9.43;4.90;;;2.10;99.90;;;;;;4996850;28;20023;-77
2023/11/20 06:35:49;;;;;;;9.45;5.00;;;1.70;99.90;;;;;;4994962;28;20022;-76
2023/11/20 06:38:14;;;;;;;8.20;4.88;;;1.60;99.90;;;;;;4995709;28;20023;-76
2023/11/20 06:40:40;;;;;;;10.20;5.13;;;1.50;99.90;;;;;;4998749;28;20027;-76
2023/11/20 06:43:06;;;;;;;7.47;5.22;;;1.30;99.90;;;;;;4996795;28;20081;-78
2023/11/20 06:45:32;;;;;;;9.05;5.78;;;1.20;99.90;;;;;;4997201;28;20030;-76
2023/11/20 06:47:58;;;;;;;8.98;4.63;;;1.20;99.90;;;;;;4997185;28;20038;-76
2023/11/20 06:50:25;;;;;;;7.45;4.60;;;1.20;99.90;;;;;;4998338;28;20109;-76
2023/11/20 06:52:54;;;;;;;7.38;5.00;;;1.10;99.90;;;;;;4998190;28;20029;-75
2023/11/20 06:55:19;;;;;;;7.00;4.85;;;1.20;99.90;;;;;;5041628;23;20040;-76
2023/11/20 06:57:46;;;;;;;7.82;5.07;;;1.20;99.90;;;;;;5036421;28;20093;-77
2023/11/20 07:00:12;;;;;;;13.13;4.57;;;1.10;99.90;;;;;;5035059;28;20088;-76
2023/11/20 07:02:39;;;;;;;7.93;5.35;;;1.10;99.90;;;;;;5035116;28;20037;-76
2023/11/20 07:05:07;;;;;;;7.00;4.65;;;1.10;99.90;;;;;;5023405;28;20077;-76
2023/11/20 07:07:40;;;;;;;7.85;4.57;;;1.10;99.90;;;;;;5014887;28;20037;-76
2023/11/20 07:10:11;;;;;;;25.80;11.70;;;1.10;99.90;;;;;;5014847;28;20025;-76
2023/11/20 07:12:40;;;;;;;14.88;8.60;;;1.10;99.90;;;;;;5015060;28;20026;-76
2023/11/20 07:15:09;;;;;;;11.05;8.73;;;1.10;99.90;;;;;;5015183;28;20029;-76
2023/11/20 07:17:36;;;;;;;13.75;6.38;;;1.10;99.90;;;;;;5015127;28;20018;-76
2023/11/20 07:20:05;;;;;;;15.30;5.45;;;1.20;99.90;;;;;;5015089;28;20025;-76
2023/11/20 07:22:31;;;;;;;9.65;5.25;;;1.20;99.90;;;;;;5015211;28;20492;-76
2023/11/20 07:24:56;;;;;;;9.90;5.28;;;1.30;99.90;;;;;;5014827;28;20109;-76
2023/11/20 07:27:22;;;;;;;13.38;5.25;;;1.30;99.90;;;;;;5016277;28;20048;-76
2023/11/20 07:29:48;;;;;;;7.18;5.22;;;1.40;99.90;;;;;;5015090;28;20053;-76
2023/11/20 07:32:13;;;;;;;10.80;6.07;;;1.50;99.90;;;;;;5015962;28;20022;-76
2023/11/20 07:34:39;;;;;;;10.93;6.90;;;1.60;99.90;;;;;;5015892;28;20061;-76
2023/11/20 07:37:04;;;;;;;11.60;8.05;;;1.70;99.90;;;;;;5014376;28;20032;-76
2023/11/20 07:39:31;;;;;;;12.57;6.57;;;1.70;99.90;;;;;;5014788;28;20025;-75
2023/11/20 07:41:59;;;;;;;10.70;5.10;;;1.80;99.90;;;;;;5014643;28;20121;-76
2023/11/20 07:44:25;;;;;;;11.15;6.72;;;1.90;99.90;;;;;;5014595;28;20075;-75
2023/11/20 07:46:50;;;;;;;8.80;6.82;;;2.00;99.90;;;;;;5013805;28;20034;-76
2023/11/20 07:49:16;;;;;;;11.00;5.75;;;2.10;99.90;;;;;;5015117;28;20029;-75
2023/11/20 07:51:42;;;;;;;15.02;7.97;;;2.20;99.90;;;;;;5014217;28;20026;-76
2023/11/20 07:54:08;;;;;;;9.70;6.15;;;2.30;99.90;;;;;;5014068;28;20026;-77
2023/11/20 07:56:35;;;;;;;9.05;5.13;;;2.30;99.90;;;;;;5015306;28;20030;-76
2023/11/20 07:59:00;;;;;;;10.02;5.65;;;2.60;99.90;;;;;;5015694;28;20014;-76
2023/11/20 08:01:26;;;;;;;9.25;5.60;;;2.30;99.90;;;;;;5014534;28;20032;-76
2023/11/20 08:03:52;;;;;;;13.65;6.53;;;2.50;99.90;;;;;;5015110;28;20026;-76
2023/11/20 08:06:18;;;;;;;11.23;6.70;;;3.10;99.90;;;;;;5015125;28;20037;-76
2023/11/20 08:08:44;;;;;;;11.38;7.40;;;2.70;99.90;;;;;;5015905;28;20029;-76
2023/11/20 08:11:10;;;;;;;17.58;9.77;;;2.80;99.90;;;;;;5015493;28;20102;-77
2023/11/20 08:13:36;;;;;;;9.77;6.88;;;3.00;99.90;;;;;;5016412;28;20036;-76
2023/11/20 08:16:03;;;;;;;9.18;6.07;;;3.20;99.90;;;;;;5017179;28;20053;-77
2023/11/20 08:18:29;;;;;;;9.50;5.32;;;3.40;99.90;;;;;;5016203;28;20069;-77
2023/11/20 08:20:55;;;;;;;10.20;6.70;;;3.50;99.90;;;;;;5015813;28;20029;-77
2023/11/20 08:23:21;;;;;;;11.48;6.05;;;3.60;99.90;;;;;;5021485;28;20037;-76
2023/11/20 08:25:47;;;;;;;8.63;5.05;;;3.80;99.90;;;;;;5022808;28;20049;-76
2023/11/20 08:28:13;;;;;;;7.80;5.88;;;3.90;99.90;;;;;;5022337;28;20504;-77
2023/11/20 08:30:38;;;;;;;12.15;6.43;;;4.00;99.90;;;;;;5019221;28;20026;-77
2023/11/20 08:33:04;;;;;;;9.65;5.35;;;4.10;99.90;;;;;;5020698;28;20032;-77
2023/11/20 08:35:30;;;;;;;10.98;5.53;;;4.30;99.90;;;;;;5015618;28;20599;-76
2023/11/20 08:37:55;;;;;;;7.13;5.88;;;4.60;99.90;;;;;;5013564;28;20033;-76
2023/11/20 08:40:21;;;;;;;8.15;5.78;;;4.70;99.90;;;;;;5014470;28;20026;-76
2023/11/20 08:42:47;;;;;;;7.13;5.53;;;4.90;99.90;;;;;;5015705;28;20037;-76
2023/11/20 08:45:13;;;;;;;6.70;4.70;;;5.00;99.90;;;;;;5012907;28;20116;-76
2023/11/20 08:47:39;;;;;;;17.10;7.45;;;5.10;99.90;;;;;;5013577;28;20138;-76
2023/11/20 08:50:08;;;;;;;18.70;8.82;;;5.20;99.90;;;;;;5012252;28;20029;-76
2023/11/20 08:52:34;;;;;;;9.23;6.32;;;5.40;99.90;;;;;;5012592;28;20113;-77
2023/11/20 08:55:00;;;;;;;11.50;5.78;;;5.50;99.90;;;;;;5012552;28;20495;-76
2023/11/20 08:57:25;;;;;;;8.23;6.18;;;5.60;99.90;;;;;;5012684;28;20488;-76
2023/11/20 08:59:51;;;;;;;8.85;6.25;;;5.60;99.90;;;;;;5012746;28;20399;-77
2023/11/20 09:02:16;;;;;;;20.10;6.97;;;5.70;99.90;;;;;;5012181;28;20033;-76
2023/11/20 09:04:42;;;;;;;10.70;6.20;;;5.90;99.90;;;;;;5012551;28;20022;-76
2023/11/20 09:07:11;;;;;;;9.40;6.43;;;5.90;99.90;;;;;;5012835;28;20496;-76
2023/11/20 09:09:37;;;;;;;8.82;5.72;;;6.00;99.90;;;;;;5013771;28;20033;-76
2023/11/20 09:12:03;;;;;;;8.68;5.18;;;5.90;99.90;;;;;;5013628;28;20022;-76
2023/11/20 09:14:29;;;;;;;8.25;5.05;;;6.00;99.90;;;;;;5012484;28;20026;-77
2023/11/20 09:16:56;;;;;;;8.93;5.72;;;6.00;99.90;;;;;;5012130;28;20025;-76
2023/11/20 09:19:22;;;;;;;10.02;6.05;;;6.00;99.90;;;;;;5012559;28;20022;-78
2023/11/20 09:21:48;;;;;;;12.10;6.50;;;6.10;99.90;;;;;;5012572;28;20030;-77
2023/11/20 09:24:14;;;;;;;10.63;5.10;;;6.20;99.90;;;;;;5013261;28;20105;-76
2023/11/20 09:26:41;;;;;;;6.43;4.82;;;6.30;99.90;;;;;;5012795;28;20054;-77
2023/11/20 09:29:07;;;;;;;8.77;5.55;;;6.80;99.90;;;;;;5016149;28;20078;-76
2023/11/20 09:31:36;;;;;;;8.48;5.85;;;6.60;99.90;;;;;;5013405;28;20061;-77
2023/11/20 09:34:02;;;;;;;6.03;4.97;;;7.00;99.90;;;;;;5013112;28;20029;-77
2023/11/20 09:36:28;;;;;;;7.65;5.05;;;6.80;99.90;;;;;;5011183;28;20519;-77
2023/11/20 09:38:54;;;;;;;9.35;5.38;;;7.00;99.90;;;;;;5014137;28;20018;-77
2023/11/20 09:41:20;;;;;;;7.15;4.72;;;7.10;99.90;;;;;;5013837;28;20073;-79
2023/11/20 09:43:48;;;;;;;10.05;7.57;;;7.20;99.90;;;;;;5012461;28;20071;-77
2023/11/20 09:46:15;;;;;;;21.00;15.48;;;7.40;99.90;;;;;;5011555;28;20179;-77
2023/11/20 09:48:43;;;;;;;9.93;6.15;;;7.40;99.90;;;;;;5013278;28;20101;-78
2023/11/20 09:51:11;;;;;;;7.68;5.57;;;7.50;99.90;;;;;;5028832;28;20108;-77
2023/11/20 09:53:38;;;;;;;14.02;7.22;;;7.60;99.90;;;;;;5011897;28;20065;-77
2023/11/20 09:56:04;;;;;;;8.43;4.88;;;7.80;99.90;;;;;;5011803;28;20038;-76
2023/11/20 09:58:34;;;;;;;7.50;4.82;;;7.90;99.90;;;;;;5013209;28;20026;-78
2023/11/20 10:01:06;;;;;;;9.50;6.97;;;7.80;99.90;;;;;;5011912;28;20380;-78
2023/11/20 10:03:35;;;;;;;9.52;6.75;;;8.00;99.90;;;;;;5012902;28;20184;-77
2023/11/20 10:06:02;;;;;;;9.15;5.95;;;8.10;99.90;;;;;;5028164;28;20032;-78
2023/11/20 10:08:29;;;;;;;7.93;5.20;;;8.20;99.90;;;;;;5011906;28;20439;-76
2023/11/20 10:10:58;;;;;;;7.10;5.82;;;8.30;99.90;;;;;;5012725;28;20506;-78
2023/11/20 10:13:26;;;;;;;8.52;4.65;;;8.30;99.90;;;;;;5011539;28;20022;-77
2023/11/20 10:15:53;;;;;;;5.82;4.57;;;8.40;99.90;;;;;;5011841;28;20028;-78
2023/11/20 10:18:20;;;;;;;6.30;4.35;;;8.50;99.90;;;;;;5013010;28;20024;-77
2023/11/20 10:20:51;;;;;;;5.88;4.20;;;8.50;99.90;;;;;;5011750;28;20033;-77
2023/11/20 10:23:23;;;;;;;7.07;4.65;;;8.70;99.90;;;;;;5012953;28;20484;-77
2023/11/20 10:25:49;;;;;;;6.38;4.43;;;8.70;99.90;;;;;;5011241;28;20072;-78
2023/11/20 10:28:15;;;;;;;6.03;4.60;;;8.90;99.90;;;;;;5011454;28;20029;-77
2023/11/20 10:30:43;;;;;;;8.73;5.80;;;8.90;99.90;;;;;;5011331;28;20029;-77
2023/11/20 10:33:18;;;;;;;8.77;5.45;;;9.10;99.90;;;;;;5012559;28;20052;-77
2023/11/20 10:35:44;;;;;;;;;;;9.20;99.90;;;;;;5011397;28;20054;-76
2023/11/20 10:38:13;;;;;;;5.97;4.00;;;9.40;99.90;;;;;;5011301;28;19913;-77
2023/11/20 10:40:48;;;;;;;7.70;4.63;;;9.40;99.90;;;;;;5011165;28;20030;-77
2023/11/20 10:43:14;;;;;;;4.95;3.65;;;9.50;99.90;;;;;;5011210;28;20033;-78
2023/11/20 10:45:40;;;;;;;5.30;4.45;;;9.60;99.90;;;;;;5011131;28;20022;-78
2023/11/20 10:48:07;;;;;;;7.40;4.43;;;9.80;99.90;;;;;;5011068;28;20109;-77
2023/11/20 10:50:38;;;;;;;5.20;3.35;;;9.80;99.90;;;;;;5011644;28;20388;-78
2023/11/20 10:53:07;;;;;;;7.88;4.68;;;9.90;99.90;;;;;;5012253;28;20029;-77
2023/11/20 10:55:42;;;;;;;7.18;4.78;;;10.40;99.90;;;;;;5011875;28;20057;-76
2023/11/20 10:58:10;;;;;;;4.60;3.67;;;10.50;99.90;;;;;;5012457;28;20096;-82
2023/11/20 11:00:37;;;;;;;6.28;4.25;;;10.50;99.90;;;;;;5027263;28;20029;-76
2023/11/20 11:03:06;;;;;;;9.90;5.53;;;10.60;99.90;;;;;;5012482;28;20028;-77
2023/11/20 11:05:39;;;;;;;8.38;6.72;;;10.60;99.90;;;;;;5010701;28;20109;-77
2023/11/20 11:08:08;;;;;;;7.07;4.97;;;10.60;99.90;;;;;;5011250;28;20064;-76
2023/11/20 11:10:38;;;;;;;5.45;3.70;;;10.70;99.90;;;;;;5012148;28;20022;-76
2023/11/20 11:13:05;;;;;;;11.60;4.00;;;10.70;99.90;;;;;;5011496;28;20022;-77
2023/11/20 11:15:31;;;;;;;4.68;2.95;;;10.70;99.90;;;;;;5011141;28;20021;-78
2023/11/20 11:18:12;;;;;;;3.80;3.03;;;10.80;99.90;;;;;;5014258;28;20097;-78
2023/11/20 11:21:00;;;;;;;6.45;3.03;;;11.60;99.90;;;;;;5012280;28;20026;-78
2023/11/20 11:23:46;;;;;;;4.65;3.33;;;11.40;99.90;;;;;;5013550;28;20054;-79
2023/11/20 11:26:30;;;;;;;4.95;2.90;;;11.30;99.90;;;;;;5019696;28;20081;-79
2023/11/20 11:29:16;;;;;;;7.65;3.00;;;11.40;99.90;;;;;;5020219;28;20128;-78
2023/11/20 11:32:14;;;;;;;6.15;4.10;;;11.40;99.90;;;;;;5020481;28;20122;-78
2023/11/20 11:35:07;;;;;;;4.55;3.58;;;11.50;99.90;;;;;;5014375;28;20026;-78
2023/11/20 11:37:46;;;;;;;6.05;4.10;;;11.60;99.90;;;;;;5027669;28;20021;-78
2023/11/20 11:40:40;;;;;;;8.45;3.42;;;11.50;99.90;;;;;;5035586;28;20018;-78
2023/11/20 11:43:17;;;;;;;4.45;3.25;;;11.50;99.90;;;;;;5032547;28;20022;-78
2023/11/20 11:45:47;;;;;;;5.20;3.72;;;11.50;99.90;;;;;;5017221;28;20018;-78
2023/11/20 11:48:13;;;;;;;6.53;4.22;;;11.60;99.90;;;;;;5032314;28;20049;-78
2023/11/20 11:50:40;;;;;;;6.75;4.00;;;11.70;99.90;;;;;;5019065;28;20025;-78
2023/11/20 11:53:10;;;;;;;5.45;3.58;;;11.80;99.90;;;;;;5032072;28;20049;-78
2023/11/20 11:55:40;;;;;;;4.10;2.70;;;11.80;99.90;;;;;;5023017;28;20057;-79
2023/11/20 11:58:14;;;;;;;7.57;3.83;;;11.80;99.90;;;;;;5023640;28;20040;-79
2023/11/20 12:00:40;;;;;;;5.68;3.03;;;11.90;99.90;;;;;;5030855;28;20049;-78
2023/11/20 12:03:09;;;;;;;5.28;4.07;;;11.90;99.90;;;;;;5030422;28;20032;-79
2023/11/20 12:05:59;;;;;;;5.93;3.22;;;12.10;99.90;;;;;;5027391;28;20052;-79
2023/11/20 12:08:33;;;;;;;11.07;3.40;;;12.10;99.90;;;;;;5025284;28;20026;-79
2023/11/20 12:11:00;;;;;;;3.40;2.58;;;12.20;99.90;;;;;;5026926;28;20052;-80
2023/11/20 12:13:29;;;;;;;6.65;3.67;;;12.20;99.80;;;;;;5027594;28;20025;-77
2023/11/20 12:16:07;;;;;;;5.85;3.97;;;12.30;99.60;;;;;;5026209;28;20022;-80
2023/11/20 12:18:37;;;;;;;6.75;3.13;;;12.30;99.00;;;;;;5028203;28;20027;-80
2023/11/20 12:21:12;;;;;;;3.65;2.70;;;12.40;98.30;;;;;;5031898;28;20028;-78
2023/11/20 12:23:40;;;;;;;3.85;2.65;;;12.40;98.30;;;;;;5035239;28;20026;-78
2023/11/20 12:26:08;;;;;;;5.40;2.97;;;12.40;97.60;;;;;;5032257;28;20053;-78
2023/11/20 12:28:36;;;;;;;5.20;2.92;;;12.50;96.90;;;;;;5034755;28;20025;-78
2023/11/20 12:31:04;;;;;;;6.00;3.47;;;12.60;96.70;;;;;;5038618;28;20029;-78
2023/11/20 12:33:30;;;;;;;3.55;2.60;;;12.60;96.40;;;;;;5038979;28;20021;-78
2023/11/20 12:35:58;;;;;;;8.07;5.82;;;12.70;97.40;;;;;;5037274;28;20101;-77
2023/11/20 12:38:24;;;;;;;7.30;3.58;;;12.70;98.40;;;;;;5038042;28;20014;-78
2023/11/20 12:40:54;;;;;;;5.68;3.38;;;12.70;98.40;;;;;;5038730;28;20022;-78
2023/11/20 12:43:21;;;;;;;6.05;4.00;;;12.80;97.70;;;;;;5038750;28;20056;-78
2023/11/20 12:45:47;;;;;;;4.35;3.25;;;12.80;97.10;;;;;;5038419;28;20094;-78
2023/11/20 12:48:13;;;;;;;6.68;2.90;;;12.80;96.90;;;;;;5038273;28;20026;-78
2023/11/20 12:50:44;;;;;;;7.72;2.83;;;12.80;97.10;;;;;;5038036;28;20049;-78
2023/11/20 12:53:10;;;;;;;3.70;2.28;;;12.80;96.40;;;;;;5024512;28;20639;-79